createdAt,value
2016-12-25T00:00:00.499Z,980.69
2016-12-25T00:01:00.455Z,980.59
2016-12-25T00:02:00.417Z,980.56
2016-12-25T00:03:00.376Z,980.53
2016-12-25T00:04:00.336Z,980.55
2016-12-25T00:05:00.296Z,980.53
2016-12-25T00:06:00.256Z,980.59
2016-12-25T00:07:00.216Z,980.62
2016-12-25T00:08:00.175Z,980.66
2016-12-25T00:09:00.135Z,980.67
2016-12-25T00:10:00.098Z,980.71
2016-12-25T00:11:00.057Z,980.72
2016-12-25T00:12:00.018Z,980.71
2016-12-25T00:12:59.978Z,980.71
2016-12-25T00:13:59.937Z,980.71
2016-12-25T00:14:59.898Z,980.76
2016-12-25T00:15:59.857Z,980.77
2016-12-25T00:16:59.823Z,980.75
2016-12-25T00:17:59.778Z,980.74
2016-12-25T00:18:59.737Z,980.71
2016-12-25T00:19:59.697Z,980.65
2016-12-25T00:20:59.658Z,980.69
2016-12-25T00:21:59.633Z,980.63
2016-12-25T00:22:59.578Z,980.64
2016-12-25T00:23:59.538Z,980.64
2016-12-25T00:24:59.498Z,980.61
2016-12-25T00:25:59.460Z,980.52
2016-12-25T00:26:59.419Z,980.47
2016-12-25T00:27:59.379Z,980.46
2016-12-25T00:28:59.339Z,980.45
2016-12-25T00:29:59.299Z,980.43
2016-12-25T00:30:59.260Z,980.39
2016-12-25T00:31:59.220Z,980.36
2016-12-25T00:32:59.180Z,980.34
2016-12-25T00:33:59.141Z,980.36
2016-12-25T00:34:59.101Z,980.4
2016-12-25T00:35:59.061Z,980.38
2016-12-25T00:36:59.020Z,980.39
2016-12-25T00:37:58.982Z,980.35
2016-12-25T00:38:58.942Z,980.37
2016-12-25T00:39:58.903Z,980.35
2016-12-25T00:40:58.863Z,980.28
2016-12-25T00:41:58.823Z,980.33
2016-12-25T00:42:58.783Z,980.3
2016-12-25T00:43:58.744Z,980.37
2016-12-25T00:44:58.704Z,980.36
2016-12-25T00:45:58.666Z,980.34
2016-12-25T00:46:58.624Z,980.38
2016-12-25T00:47:58.584Z,980.32
2016-12-25T00:48:58.545Z,980.29
2016-12-25T00:49:58.505Z,980.26
2016-12-25T00:50:58.466Z,980.27
2016-12-25T00:51:58.430Z,980.18
2016-12-25T00:52:58.386Z,980.18
2016-12-25T00:53:58.347Z,980.19
2016-12-25T00:54:58.306Z,980.15
2016-12-25T00:55:58.268Z,980.15
2016-12-25T00:56:58.228Z,980.11
2016-12-25T00:57:58.188Z,980.06
2016-12-25T00:58:58.148Z,980.03
2016-12-25T00:59:58.110Z,980.03
2016-12-25T01:00:58.069Z,979.99
2016-12-25T01:01:58.029Z,979.95
2016-12-25T01:02:57.990Z,979.94
2016-12-25T01:03:57.951Z,979.91
2016-12-25T01:04:57.912Z,979.94
2016-12-25T01:05:57.871Z,979.99
2016-12-25T01:06:57.833Z,980.04
2016-12-25T01:07:57.793Z,980.06
2016-12-25T01:08:57.753Z,980.06
2016-12-25T01:09:57.713Z,979.99
2016-12-25T01:10:57.673Z,980.02
2016-12-25T01:11:57.635Z,980
2016-12-25T01:12:57.595Z,979.98
2016-12-25T01:13:57.556Z,980.02
2016-12-25T01:14:57.515Z,980.04
2016-12-25T01:15:57.476Z,980.07
2016-12-25T01:16:57.435Z,980.08
2016-12-25T01:17:57.397Z,980.03
2016-12-25T01:18:57.357Z,980.03
2016-12-25T01:19:57.317Z,980.06
2016-12-25T01:20:57.278Z,980.06
2016-12-25T01:21:57.237Z,980.05
2016-12-25T01:22:57.198Z,980.09
2016-12-25T01:23:57.157Z,980.1
2016-12-25T01:24:57.119Z,980.14
2016-12-25T01:25:57.079Z,980.13
2016-12-25T01:26:57.042Z,980.15
2016-12-25T01:27:57.001Z,980.12
2016-12-25T01:28:56.960Z,980.05
2016-12-25T01:29:56.923Z,980.02
2016-12-25T01:30:56.879Z,980.02
2016-12-25T01:31:56.842Z,979.98
2016-12-25T01:32:56.802Z,980.04
2016-12-25T01:33:56.762Z,980.04
2016-12-25T01:34:56.722Z,980.09
2016-12-25T01:35:56.684Z,980.07
2016-12-25T01:36:56.645Z,980.1
2016-12-25T01:37:56.602Z,980.1
2016-12-25T01:38:56.564Z,980.1
2016-12-25T01:39:56.544Z,980.17
2016-12-25T01:40:56.485Z,980.22
2016-12-25T01:41:56.444Z,980.27
2016-12-25T01:42:56.406Z,980.29
2016-12-25T01:43:56.368Z,980.29
2016-12-25T01:44:56.327Z,980.29
2016-12-25T01:45:56.287Z,980.21
2016-12-25T01:46:56.249Z,980.1
2016-12-25T01:47:56.210Z,980.08
2016-12-25T01:48:56.169Z,980.11
2016-12-25T01:49:56.131Z,980.07
2016-12-25T01:50:56.090Z,980.18
2016-12-25T01:51:56.051Z,980.25
2016-12-25T01:52:56.011Z,980.3
2016-12-25T01:53:55.978Z,980.36
2016-12-25T01:54:55.932Z,980.36
2016-12-25T01:55:55.893Z,980.44
2016-12-25T01:56:55.855Z,980.43
2016-12-25T01:57:55.815Z,980.39
2016-12-25T01:58:55.776Z,980.38
2016-12-25T01:59:55.734Z,980.35
2016-12-25T02:00:55.696Z,980.38
2016-12-25T02:01:55.656Z,980.37
2016-12-25T02:02:55.617Z,980.35
2016-12-25T02:03:55.576Z,980.36
2016-12-25T02:04:55.541Z,980.41
2016-12-25T02:05:55.500Z,980.38
2016-12-25T02:06:55.461Z,980.38
2016-12-25T02:07:55.420Z,980.39
2016-12-25T02:08:55.380Z,980.38
2016-12-25T02:09:55.341Z,980.38
2016-12-25T02:10:55.301Z,980.36
2016-12-25T02:11:55.262Z,980.37
2016-12-25T02:12:55.224Z,980.35
2016-12-25T02:13:55.183Z,980.37
2016-12-25T02:14:55.144Z,980.34
2016-12-25T02:15:55.105Z,980.34
2016-12-25T02:16:55.068Z,980.36
2016-12-25T02:17:55.026Z,980.32
2016-12-25T02:18:54.987Z,980.33
2016-12-25T02:19:54.947Z,980.31
2016-12-25T02:20:54.908Z,980.35
2016-12-25T02:21:54.868Z,980.32
2016-12-25T02:22:54.829Z,980.34
2016-12-25T02:23:54.790Z,980.32
2016-12-25T02:24:54.751Z,980.27
2016-12-25T02:25:54.710Z,980.26
2016-12-25T02:26:54.671Z,980.26
2016-12-25T02:27:54.630Z,980.26
2016-12-25T02:28:54.594Z,980.22
2016-12-25T02:29:54.552Z,980.21
2016-12-25T02:30:54.513Z,980.27
2016-12-25T02:31:54.474Z,980.26
2016-12-25T02:32:54.434Z,980.2
2016-12-25T02:33:54.397Z,980.26
2016-12-25T02:34:54.356Z,980.24
2016-12-25T02:35:54.318Z,980.25
2016-12-25T02:36:54.277Z,980.27
2016-12-25T02:37:54.240Z,980.27
2016-12-25T02:38:54.199Z,980.24
2016-12-25T02:39:54.159Z,980.19
2016-12-25T02:40:54.122Z,980.19
2016-12-25T02:41:54.080Z,980.18
2016-12-25T02:42:54.042Z,980.23
2016-12-25T02:43:54.001Z,980.23
2016-12-25T02:44:53.963Z,980.24
2016-12-25T02:45:53.929Z,980.23
2016-12-25T02:46:53.884Z,980.27
2016-12-25T02:47:53.843Z,980.33
2016-12-25T02:48:53.805Z,980.27
2016-12-25T02:49:53.765Z,980.3
2016-12-25T02:50:53.725Z,980.31
2016-12-25T02:51:53.686Z,980.28
2016-12-25T02:52:53.647Z,980.24
2016-12-25T02:53:53.612Z,980.26
2016-12-25T02:54:53.567Z,980.21
2016-12-25T02:55:53.527Z,980.18
2016-12-25T02:56:53.488Z,980.15
2016-12-25T02:57:53.451Z,980.06
2016-12-25T02:58:53.410Z,980.05
2016-12-25T02:59:53.370Z,980
2016-12-25T03:00:53.330Z,979.97
2016-12-25T03:01:53.290Z,980.01
2016-12-25T03:02:53.250Z,979.96
2016-12-25T03:03:53.213Z,979.92
2016-12-25T03:04:53.171Z,979.88
2016-12-25T03:05:53.132Z,979.88
2016-12-25T03:06:53.094Z,979.97
2016-12-25T03:07:53.052Z,979.97
2016-12-25T03:08:53.014Z,979.99
2016-12-25T03:09:52.974Z,979.98
2016-12-25T03:10:52.934Z,979.95
2016-12-25T03:11:52.896Z,980
2016-12-25T03:12:52.856Z,980.01
2016-12-25T03:13:52.816Z,980.07
2016-12-25T03:14:52.777Z,980.09
2016-12-25T03:15:52.737Z,980.05
2016-12-25T03:16:52.697Z,980.01
2016-12-25T03:17:52.656Z,979.99
2016-12-25T03:18:52.618Z,979.95
2016-12-25T03:19:52.579Z,980
2016-12-25T03:20:52.539Z,980.02
2016-12-25T03:21:52.501Z,980.07
2016-12-25T03:22:52.459Z,980.12
2016-12-25T03:23:52.420Z,980.15
2016-12-25T03:24:52.382Z,980.14
2016-12-25T03:25:52.340Z,980.07
2016-12-25T03:26:52.301Z,980.04
2016-12-25T03:27:52.263Z,980
2016-12-25T03:28:52.220Z,979.96
2016-12-25T03:29:52.181Z,979.88
2016-12-25T03:30:52.143Z,979.89
2016-12-25T03:31:52.102Z,979.91
2016-12-25T03:32:52.066Z,979.86
2016-12-25T03:33:52.025Z,979.79
2016-12-25T03:34:51.983Z,979.73
2016-12-25T03:35:51.944Z,979.75
2016-12-25T03:36:51.904Z,979.76
2016-12-25T03:37:51.866Z,979.74
2016-12-25T03:38:51.826Z,979.74
2016-12-25T03:39:51.786Z,979.73
2016-12-25T03:40:51.747Z,979.8
2016-12-25T03:41:51.706Z,979.79
2016-12-25T03:42:51.667Z,979.74
2016-12-25T03:43:51.627Z,979.74
2016-12-25T03:44:51.588Z,979.72
2016-12-25T03:45:51.549Z,979.76
2016-12-25T03:46:51.509Z,979.83
2016-12-25T03:47:51.468Z,979.83
2016-12-25T03:48:51.429Z,979.83
2016-12-25T03:49:51.388Z,979.8
2016-12-25T03:50:51.350Z,979.8
2016-12-25T03:51:51.309Z,979.79
2016-12-25T03:52:51.270Z,979.78
2016-12-25T03:53:51.232Z,979.76
2016-12-25T03:54:51.190Z,979.7
2016-12-25T03:55:51.150Z,979.67
2016-12-25T03:56:51.110Z,979.59
2016-12-25T03:57:51.071Z,979.54
2016-12-25T03:58:51.034Z,979.55
2016-12-25T03:59:50.992Z,979.59
2016-12-25T04:00:50.954Z,979.68
2016-12-25T04:01:50.911Z,979.66
2016-12-25T04:02:50.873Z,979.76
2016-12-25T04:03:50.832Z,979.78
2016-12-25T04:04:50.793Z,979.73
2016-12-25T04:05:50.752Z,979.81
2016-12-25T04:06:50.713Z,979.79
2016-12-25T04:07:50.673Z,979.75
2016-12-25T04:08:50.633Z,979.7
2016-12-25T04:09:50.592Z,979.68
2016-12-25T04:10:50.554Z,979.61
2016-12-25T04:11:50.513Z,979.61
2016-12-25T04:12:50.476Z,979.7
2016-12-25T04:13:50.434Z,979.67
2016-12-25T04:14:50.394Z,979.69
2016-12-25T04:15:50.355Z,979.62
2016-12-25T04:16:50.315Z,979.62
2016-12-25T04:17:50.274Z,979.66
2016-12-25T04:18:50.235Z,979.64
2016-12-25T04:19:50.195Z,979.65
2016-12-25T04:20:50.156Z,979.68
2016-12-25T04:21:50.116Z,979.76
2016-12-25T04:22:50.076Z,979.75
2016-12-25T04:23:50.044Z,979.7
2016-12-25T04:24:49.998Z,979.72
2016-12-25T04:25:49.956Z,979.7
2016-12-25T04:26:49.918Z,979.68
2016-12-25T04:27:49.877Z,979.65
2016-12-25T04:28:49.838Z,979.6
2016-12-25T04:29:49.797Z,979.57
2016-12-25T04:30:49.757Z,979.54
2016-12-25T04:31:49.718Z,979.49
2016-12-25T04:32:49.678Z,979.49
2016-12-25T04:33:49.639Z,979.5
2016-12-25T04:34:49.600Z,979.59
2016-12-25T04:35:49.559Z,979.64
2016-12-25T04:36:49.518Z,979.64
2016-12-25T04:37:49.479Z,979.64
2016-12-25T04:38:49.442Z,979.72
2016-12-25T04:39:49.401Z,979.77
2016-12-25T04:40:49.364Z,979.82
2016-12-25T04:41:49.321Z,979.87
2016-12-25T04:42:49.281Z,979.96
2016-12-25T04:43:49.241Z,979.97
2016-12-25T04:44:49.200Z,979.94
2016-12-25T04:45:49.162Z,979.94
2016-12-25T04:46:49.126Z,979.91
2016-12-25T04:47:49.082Z,979.88
2016-12-25T04:48:49.045Z,979.84
2016-12-25T04:49:49.003Z,979.9
2016-12-25T04:50:48.961Z,979.89
2016-12-25T04:51:48.922Z,979.94
2016-12-25T04:52:48.883Z,979.91
2016-12-25T04:53:48.846Z,979.87
2016-12-25T04:54:48.803Z,979.84
2016-12-25T04:55:48.763Z,979.88
2016-12-25T04:56:48.723Z,979.87
2016-12-25T04:57:48.683Z,979.9
2016-12-25T04:58:48.645Z,979.83
2016-12-25T04:59:48.605Z,979.84
2016-12-25T05:00:48.566Z,979.89
2016-12-25T05:01:48.525Z,979.82
2016-12-25T05:02:48.485Z,979.84
2016-12-25T05:03:48.444Z,979.87
2016-12-25T05:04:48.406Z,979.91
2016-12-25T05:05:48.365Z,979.87
2016-12-25T05:06:48.325Z,979.93
2016-12-25T05:07:48.285Z,979.98
2016-12-25T05:08:48.246Z,979.95
2016-12-25T05:09:48.206Z,979.96
2016-12-25T05:10:48.173Z,979.93
2016-12-25T05:11:48.127Z,979.95
2016-12-25T05:12:48.086Z,979.97
2016-12-25T05:13:48.045Z,980
2016-12-25T05:14:48.006Z,979.95
2016-12-25T05:15:47.967Z,979.96
2016-12-25T05:16:47.927Z,979.93
2016-12-25T05:17:47.887Z,980.01
2016-12-25T05:18:47.847Z,979.97
2016-12-25T05:19:47.807Z,979.96
2016-12-25T05:20:47.767Z,979.95
2016-12-25T05:21:47.728Z,979.92
2016-12-25T05:22:47.688Z,979.99
2016-12-25T05:23:47.649Z,979.96
2016-12-25T05:24:47.607Z,979.97
2016-12-25T05:25:47.568Z,979.91
2016-12-25T05:26:47.528Z,979.8
2016-12-25T05:27:47.488Z,979.85
2016-12-25T05:28:47.448Z,979.89
2016-12-25T05:29:47.408Z,979.8
2016-12-25T05:30:47.369Z,979.8
2016-12-25T05:31:47.328Z,979.79
2016-12-25T05:32:47.288Z,979.75
2016-12-25T05:33:47.249Z,979.77
2016-12-25T05:34:47.210Z,979.79
2016-12-25T05:35:47.168Z,979.78
2016-12-25T05:36:47.130Z,979.78
2016-12-25T05:37:47.089Z,979.82
2016-12-25T05:38:47.050Z,979.82
2016-12-25T05:39:47.009Z,979.8
2016-12-25T05:40:46.970Z,979.77
2016-12-25T05:41:46.928Z,979.75
2016-12-25T05:42:46.892Z,979.84
2016-12-25T05:43:46.851Z,979.83
2016-12-25T05:44:46.812Z,979.85
2016-12-25T05:45:46.770Z,979.85
2016-12-25T05:46:46.730Z,979.76
2016-12-25T05:47:46.692Z,979.74
2016-12-25T05:48:46.650Z,979.79
2016-12-25T05:49:46.612Z,979.83
2016-12-25T05:50:46.571Z,979.79
2016-12-25T05:51:46.532Z,979.78
2016-12-25T05:52:46.493Z,979.78
2016-12-25T05:53:46.451Z,979.75
2016-12-25T05:54:46.412Z,979.82
2016-12-25T05:55:46.370Z,979.84
2016-12-25T05:56:46.333Z,979.95
2016-12-25T05:57:46.292Z,980
2016-12-25T05:58:46.251Z,980.05
2016-12-25T05:59:46.213Z,980.1
2016-12-25T06:00:46.172Z,980.02
2016-12-25T06:01:46.132Z,980.03
2016-12-25T06:02:46.094Z,980.09
2016-12-25T06:03:46.054Z,980.06
2016-12-25T06:04:46.014Z,980.07
2016-12-25T06:05:45.973Z,980.03
2016-12-25T06:06:45.934Z,980.06
2016-12-25T06:07:45.893Z,980.04
2016-12-25T06:08:45.854Z,980.08
2016-12-25T06:09:45.814Z,980.13
2016-12-25T06:10:45.775Z,980.14
2016-12-25T06:11:45.735Z,980.15
2016-12-25T06:12:45.694Z,980.08
2016-12-25T06:13:45.655Z,980.13
2016-12-25T06:14:45.615Z,980.14
2016-12-25T06:15:45.576Z,980.18
2016-12-25T06:16:45.535Z,980.24
2016-12-25T06:17:45.495Z,980.3
2016-12-25T06:18:45.457Z,980.28
2016-12-25T06:19:45.415Z,980.27
2016-12-25T06:20:45.377Z,980.16
2016-12-25T06:21:45.337Z,980.1
2016-12-25T06:22:45.295Z,980.03
2016-12-25T06:23:45.256Z,979.98
2016-12-25T06:24:45.216Z,980
2016-12-25T06:25:45.177Z,979.97
2016-12-25T06:26:45.136Z,980.01
2016-12-25T06:27:45.097Z,980.01
2016-12-25T06:28:45.059Z,980.12
2016-12-25T06:29:45.018Z,980.09
2016-12-25T06:30:44.978Z,980.11
2016-12-25T06:31:44.940Z,980.17
2016-12-25T06:32:44.899Z,980.2
2016-12-25T06:33:44.867Z,980.2
2016-12-25T06:34:44.820Z,980.18
2016-12-25T06:35:44.779Z,980.2
2016-12-25T06:36:44.742Z,980.22
2016-12-25T06:37:44.699Z,980.28
2016-12-25T06:38:44.659Z,980.3
2016-12-25T06:39:44.621Z,980.36
2016-12-25T06:40:44.581Z,980.4
2016-12-25T06:41:44.539Z,980.41
2016-12-25T06:42:44.501Z,980.36
2016-12-25T06:43:44.461Z,980.35
2016-12-25T06:44:44.421Z,980.33
2016-12-25T06:45:44.381Z,980.33
2016-12-25T06:46:44.342Z,980.36
2016-12-25T06:47:44.301Z,980.37
2016-12-25T06:48:44.262Z,980.26
2016-12-25T06:49:44.223Z,980.24
2016-12-25T06:50:44.183Z,980.19
2016-12-25T06:51:44.143Z,980.26
2016-12-25T06:52:44.100Z,980.26
2016-12-25T06:53:44.065Z,980.26
2016-12-25T06:54:44.025Z,980.27
2016-12-25T06:55:43.983Z,980.28
2016-12-25T06:56:43.943Z,980.33
2016-12-25T06:57:43.903Z,980.35
2016-12-25T06:58:43.863Z,980.38
2016-12-25T06:59:43.822Z,980.32
2016-12-25T07:00:43.784Z,980.35
2016-12-25T07:01:43.747Z,980.37
2016-12-25T07:02:43.705Z,980.39
2016-12-25T07:03:43.667Z,980.44
2016-12-25T07:04:43.626Z,980.48
2016-12-25T07:05:43.586Z,980.43
2016-12-25T07:06:43.544Z,980.48
2016-12-25T07:07:43.507Z,980.46
2016-12-25T07:08:43.465Z,980.56
2016-12-25T07:09:43.426Z,980.56
2016-12-25T07:10:43.384Z,980.54
2016-12-25T07:11:43.345Z,980.49
2016-12-25T07:12:43.306Z,980.47
2016-12-25T07:13:43.267Z,980.44
2016-12-25T07:14:43.226Z,980.44
2016-12-25T07:15:43.187Z,980.4
2016-12-25T07:16:43.148Z,980.4
2016-12-25T07:17:43.107Z,980.39
2016-12-25T07:18:43.067Z,980.45
2016-12-25T07:19:43.028Z,980.45
2016-12-25T07:20:42.987Z,980.46
2016-12-25T07:21:42.947Z,980.48
2016-12-25T07:22:42.907Z,980.43
2016-12-25T07:23:42.867Z,980.54
2016-12-25T07:24:42.830Z,980.61
2016-12-25T07:25:42.789Z,980.61
2016-12-25T07:26:42.749Z,980.57
2016-12-25T07:27:42.710Z,980.56
2016-12-25T07:28:42.674Z,980.55
2016-12-25T07:29:42.629Z,980.58
2016-12-25T07:30:42.591Z,980.63
2016-12-25T07:31:42.552Z,980.68
2016-12-25T07:32:42.512Z,980.71
2016-12-25T07:33:42.470Z,980.73
2016-12-25T07:34:42.430Z,980.74
2016-12-25T07:35:42.391Z,980.71
2016-12-25T07:36:42.350Z,980.73
2016-12-25T07:37:42.310Z,980.7
2016-12-25T07:38:42.272Z,980.79
2016-12-25T07:39:42.230Z,980.77
2016-12-25T07:40:42.192Z,980.75
2016-12-25T07:41:42.151Z,980.75
2016-12-25T07:42:42.112Z,980.73
2016-12-25T07:43:42.072Z,980.74
2016-12-25T07:44:42.033Z,980.74
2016-12-25T07:45:41.993Z,980.74
2016-12-25T07:46:41.952Z,980.67
2016-12-25T07:47:41.913Z,980.71
2016-12-25T07:48:41.874Z,980.71
2016-12-25T07:49:41.833Z,980.73
2016-12-25T07:50:41.795Z,980.71
2016-12-25T07:51:41.753Z,980.73
2016-12-25T07:52:41.714Z,980.74
2016-12-25T07:53:41.675Z,980.79
2016-12-25T07:54:41.635Z,980.86
2016-12-25T07:55:41.594Z,980.84
2016-12-25T07:56:41.554Z,980.84
2016-12-25T07:57:41.524Z,980.86
2016-12-25T07:58:41.475Z,980.84
2016-12-25T07:59:41.437Z,980.8
2016-12-25T08:00:41.397Z,980.8
2016-12-25T08:01:41.356Z,980.82
2016-12-25T08:02:41.316Z,980.81
2016-12-25T08:03:41.277Z,980.84
2016-12-25T08:04:41.237Z,980.81
2016-12-25T08:05:41.198Z,980.81
2016-12-25T08:06:41.158Z,980.85
2016-12-25T08:07:41.118Z,980.86
2016-12-25T08:08:41.079Z,980.82
2016-12-25T08:09:41.039Z,980.87
2016-12-25T08:10:40.998Z,980.82
2016-12-25T08:11:40.959Z,980.84
2016-12-25T08:12:40.919Z,980.82
2016-12-25T08:13:40.881Z,980.85
2016-12-25T08:14:40.841Z,980.84
2016-12-25T08:15:40.801Z,980.88
2016-12-25T08:16:40.761Z,980.91
2016-12-25T08:17:40.720Z,980.91
2016-12-25T08:18:40.683Z,980.85
2016-12-25T08:19:40.640Z,980.87
2016-12-25T08:20:40.602Z,980.9
2016-12-25T08:21:40.565Z,980.86
2016-12-25T08:22:40.521Z,980.81
2016-12-25T08:23:40.482Z,980.84
2016-12-25T08:24:40.445Z,980.89
2016-12-25T08:25:40.404Z,980.9
2016-12-25T08:26:40.363Z,980.93
2016-12-25T08:27:40.323Z,981.01
2016-12-25T08:28:40.284Z,980.91
2016-12-25T08:29:40.244Z,980.98
2016-12-25T08:30:40.204Z,981.04
2016-12-25T08:31:40.164Z,981.05
2016-12-25T08:32:40.124Z,981.08
2016-12-25T08:33:40.089Z,981.1
2016-12-25T08:34:40.045Z,981.12
2016-12-25T08:35:40.004Z,981.14
2016-12-25T08:36:39.965Z,981.15
2016-12-25T08:37:39.927Z,981.16
2016-12-25T08:38:39.887Z,981.2
2016-12-25T08:39:39.858Z,981.25
2016-12-25T08:40:39.807Z,981.21
2016-12-25T08:41:39.768Z,981.22
2016-12-25T08:42:39.727Z,981.2
2016-12-25T08:43:39.696Z,981.22
2016-12-25T08:44:39.649Z,981.19
2016-12-25T08:45:39.607Z,981.16
2016-12-25T08:46:39.571Z,981.18
2016-12-25T08:47:39.529Z,981.16
2016-12-25T08:48:39.489Z,981.28
2016-12-25T08:49:39.449Z,981.19
2016-12-25T08:50:39.410Z,981.24
2016-12-25T08:51:39.371Z,981.23
2016-12-25T08:52:39.331Z,981.24
2016-12-25T08:53:39.294Z,981.26
2016-12-25T08:54:39.253Z,981.27
2016-12-25T08:55:39.213Z,981.32
2016-12-25T08:56:39.175Z,981.29
2016-12-25T08:57:39.133Z,981.32
2016-12-25T08:58:39.092Z,981.38
2016-12-25T08:59:39.055Z,981.39
2016-12-25T09:00:39.015Z,981.39
2016-12-25T09:01:38.978Z,981.37
2016-12-25T09:02:38.939Z,981.41
2016-12-25T09:03:38.897Z,981.45
2016-12-25T09:04:38.858Z,981.51
2016-12-25T09:05:38.820Z,981.45
2016-12-25T09:06:38.780Z,981.49
2016-12-25T09:07:38.739Z,981.48
2016-12-25T09:08:38.703Z,981.5
2016-12-25T09:09:38.661Z,981.47
2016-12-25T09:10:38.623Z,981.47
2016-12-25T09:11:38.582Z,981.47
2016-12-25T09:12:38.544Z,981.4
2016-12-25T09:13:38.509Z,981.5
2016-12-25T09:14:38.468Z,981.44
2016-12-25T09:15:38.427Z,981.38
2016-12-25T09:16:38.385Z,981.39
2016-12-25T09:17:38.347Z,981.4
2016-12-25T09:18:38.306Z,981.35
2016-12-25T09:19:38.266Z,981.36
2016-12-25T09:20:38.227Z,981.29
2016-12-25T09:21:38.187Z,981.25
2016-12-25T09:22:38.148Z,981.2
2016-12-25T09:23:38.109Z,981.17
2016-12-25T09:24:38.070Z,981.12
2016-12-25T09:25:38.032Z,981.11
2016-12-25T09:26:37.993Z,981.13
2016-12-25T09:27:37.953Z,981.12
2016-12-25T09:28:37.911Z,981.16
2016-12-25T09:29:37.874Z,981.24
2016-12-25T09:30:37.836Z,981.28
2016-12-25T09:31:37.796Z,981.23
2016-12-25T09:32:37.756Z,981.24
2016-12-25T09:33:37.719Z,981.28
2016-12-25T09:34:37.679Z,981.23
2016-12-25T09:35:37.639Z,981.19
2016-12-25T09:36:37.599Z,981.15
2016-12-25T09:37:37.560Z,981.15
2016-12-25T09:38:37.521Z,981.18
2016-12-25T09:39:37.481Z,981.12
2016-12-25T09:40:37.442Z,981.13
2016-12-25T09:41:37.404Z,981.11
2016-12-25T09:42:37.365Z,981.11
2016-12-25T09:43:37.327Z,981.09
2016-12-25T09:44:37.285Z,981.09
2016-12-25T09:45:37.248Z,981
2016-12-25T09:46:37.209Z,980.93
2016-12-25T09:47:37.170Z,980.92
2016-12-25T09:48:37.130Z,980.93
2016-12-25T09:49:37.093Z,980.96
2016-12-25T09:50:37.055Z,980.92
2016-12-25T09:51:37.014Z,980.99
2016-12-25T09:52:36.974Z,980.99
2016-12-25T09:53:36.935Z,981.02
2016-12-25T09:54:36.895Z,980.97
2016-12-25T09:55:36.858Z,980.91
2016-12-25T09:56:36.819Z,980.84
2016-12-25T09:57:36.780Z,980.84
2016-12-25T09:58:36.741Z,980.8
2016-12-25T09:59:36.702Z,980.81
2016-12-25T10:00:36.663Z,980.79
2016-12-25T10:01:36.624Z,980.75
2016-12-25T10:02:36.584Z,980.8
2016-12-25T10:03:36.547Z,980.81
2016-12-25T10:04:36.507Z,980.82
2016-12-25T10:05:36.467Z,980.82
2016-12-25T10:06:36.436Z,980.82
2016-12-25T10:07:36.392Z,980.77
2016-12-25T10:08:36.352Z,980.77
2016-12-25T10:09:36.312Z,980.83
2016-12-25T10:10:36.273Z,980.76
2016-12-25T10:11:36.235Z,980.74
2016-12-25T10:12:36.197Z,980.66
2016-12-25T10:13:36.164Z,980.73
2016-12-25T10:14:36.119Z,980.67
2016-12-25T10:15:36.080Z,980.65
2016-12-25T10:16:36.040Z,980.61
2016-12-25T10:17:36.001Z,980.56
2016-12-25T10:18:35.963Z,980.54
2016-12-25T10:19:35.924Z,980.57
2016-12-25T10:20:35.885Z,980.47
2016-12-25T10:21:35.846Z,980.55
2016-12-25T10:22:35.808Z,980.52
2016-12-25T10:23:35.770Z,980.48
2016-12-25T10:24:35.730Z,980.54
2016-12-25T10:25:35.690Z,980.6
2016-12-25T10:26:35.653Z,980.66
2016-12-25T10:27:35.613Z,980.74
2016-12-25T10:28:35.574Z,980.86
2016-12-25T10:29:35.536Z,980.84
2016-12-25T10:30:35.497Z,980.78
2016-12-25T10:31:35.456Z,980.65
2016-12-25T10:32:35.419Z,980.57
2016-12-25T10:33:35.381Z,980.47
2016-12-25T10:34:35.346Z,980.34
2016-12-25T10:35:35.305Z,980.29
2016-12-25T10:36:35.265Z,980.37
2016-12-25T10:37:35.225Z,980.31
2016-12-25T10:38:35.197Z,980.34
2016-12-25T10:39:35.150Z,980.29
2016-12-25T10:40:35.111Z,980.28
2016-12-25T10:41:35.072Z,980.35
2016-12-25T10:42:35.035Z,980.39
2016-12-25T10:43:34.997Z,980.44
2016-12-25T10:44:34.958Z,980.45
2016-12-25T10:45:34.917Z,980.48
2016-12-25T10:46:34.881Z,980.5
2016-12-25T10:47:34.842Z,980.5
2016-12-25T10:48:34.804Z,980.44
2016-12-25T10:49:34.767Z,980.43
2016-12-25T10:50:34.731Z,980.4
2016-12-25T10:51:34.690Z,980.39
2016-12-25T10:52:34.653Z,980.28
2016-12-25T10:53:34.614Z,980.27
2016-12-25T10:54:34.576Z,980.24
2016-12-25T10:55:34.538Z,980.25
2016-12-25T10:56:34.500Z,980.2
2016-12-25T10:57:34.462Z,980.21
2016-12-25T10:58:34.425Z,980.18
2016-12-25T10:59:34.389Z,980.23
2016-12-25T11:00:34.349Z,980.22
2016-12-25T11:01:34.312Z,980.19
2016-12-25T11:02:34.276Z,980.15
2016-12-25T11:03:34.237Z,980.09
2016-12-25T11:04:34.200Z,980.09
2016-12-25T11:05:34.162Z,980.07
2016-12-25T11:06:34.126Z,980.07
2016-12-25T11:07:34.087Z,980.02
2016-12-25T11:08:34.050Z,980.01
2016-12-25T11:09:34.015Z,979.99
2016-12-25T11:10:33.977Z,979.98
2016-12-25T11:11:33.938Z,980.03
2016-12-25T11:12:33.900Z,980.08
2016-12-25T11:13:33.864Z,980.13
2016-12-25T11:14:33.826Z,980.13
2016-12-25T11:15:33.792Z,980.13
2016-12-25T11:16:33.753Z,980.11
2016-12-25T11:17:33.715Z,980.09
2016-12-25T11:18:33.677Z,980.01
2016-12-25T11:19:33.641Z,980.03
2016-12-25T11:20:33.603Z,980
2016-12-25T11:21:33.565Z,979.93
2016-12-25T11:22:33.532Z,979.99
2016-12-25T11:23:33.491Z,980.06
2016-12-25T11:24:33.454Z,980.06
2016-12-25T11:25:33.417Z,980.14
2016-12-25T11:26:33.379Z,980.11
2016-12-25T11:27:33.342Z,980.09
2016-12-25T11:28:33.306Z,980.08
2016-12-25T11:29:33.267Z,980.04
2016-12-25T11:30:33.231Z,979.99
2016-12-25T11:31:33.194Z,979.97
2016-12-25T11:32:33.155Z,979.95
2016-12-25T11:33:33.119Z,979.88
2016-12-25T11:34:33.082Z,979.9
2016-12-25T11:35:33.044Z,979.87
2016-12-25T11:36:33.007Z,979.84
2016-12-25T11:37:32.968Z,979.87
2016-12-25T11:38:32.933Z,979.87
2016-12-25T11:39:32.895Z,979.92
2016-12-25T11:40:32.858Z,979.92
2016-12-25T11:41:32.820Z,979.98
2016-12-25T11:42:32.782Z,979.94
2016-12-25T11:43:32.744Z,979.96
2016-12-25T11:44:32.709Z,979.89
2016-12-25T11:45:32.670Z,979.83
2016-12-25T11:46:32.633Z,979.84
2016-12-25T11:47:32.594Z,979.86
2016-12-25T11:48:32.553Z,979.87
2016-12-25T11:49:32.519Z,979.85
2016-12-25T11:50:32.484Z,979.86
2016-12-25T11:51:32.580Z,979.81
2016-12-25T11:52:32.418Z,979.84
2016-12-25T11:53:32.371Z,979.82
2016-12-25T11:54:32.333Z,979.81
2016-12-25T11:55:32.295Z,979.83
2016-12-25T11:56:32.259Z,979.86
2016-12-25T11:57:32.221Z,979.86
2016-12-25T11:58:32.192Z,979.86
2016-12-25T11:59:32.149Z,979.8
2016-12-25T12:00:32.111Z,979.78
2016-12-25T12:01:32.073Z,979.81
2016-12-25T12:02:32.032Z,979.81
2016-12-25T12:03:31.998Z,979.84
2016-12-25T12:04:31.961Z,979.81
2016-12-25T12:05:31.924Z,979.82
2016-12-25T12:06:31.885Z,979.76
2016-12-25T12:07:31.852Z,979.73
2016-12-25T12:08:31.814Z,979.81
2016-12-25T12:09:31.776Z,979.83
2016-12-25T12:10:31.739Z,979.74
2016-12-25T12:11:31.701Z,979.73
2016-12-25T12:12:31.666Z,979.7
2016-12-25T12:13:31.627Z,979.65
2016-12-25T12:14:31.590Z,979.61
2016-12-25T12:15:31.554Z,979.61
2016-12-25T12:16:31.517Z,979.64
2016-12-25T12:17:31.478Z,979.58
2016-12-25T12:18:31.441Z,979.64
2016-12-25T12:19:31.407Z,979.62
2016-12-25T12:20:31.367Z,979.57
2016-12-25T12:21:31.330Z,979.56
2016-12-25T12:22:31.294Z,979.52
2016-12-25T12:23:31.256Z,979.45
2016-12-25T12:24:31.219Z,979.48
2016-12-25T12:25:31.185Z,979.49
2016-12-25T12:26:31.148Z,979.46
2016-12-25T12:27:31.108Z,979.51
2016-12-25T12:28:31.071Z,979.51
2016-12-25T12:29:31.034Z,979.58
2016-12-25T12:30:30.996Z,979.55